Time;durP1;ratioP1;P1;durP2;ratioP2;P2;SDS_P1;SDS_P2;PMS_P1;PMS_P2;Temp;Humidity;BMP_temperature;BMP_pressure;BME280_temperature;BME280_humidity;BME280_pressure;Samples;Min_cycle;Max_cycle;Signal;HPM_P1;HPM_P2
2023/10/11 00:00:33;;;;;;;;;17.00;15.40;;;;;17.01;100.00;99137.69;6222345;28;96510;-70
2023/10/11 00:03:45;;;;;;;;;16.00;14.00;;;;;17.02;100.00;99133.91;6236035;28;96711;-71
2023/10/11 00:06:50;;;;;;;;;19.60;19.00;;;;;17.00;100.00;99125.19;6232395;28;96739;-70
2023/10/11 00:09:55;;;;;;;;;17.80;15.80;;;;;16.93;100.00;99123.72;6237474;28;96460;-70
2023/10/11 00:12:58;;;;;;;;;18.00;17.00;;;;;16.84;100.00;99126.09;6236150;28;97173;-69
2023/10/11 00:16:07;;;;;;;;;18.25;17.00;;;;;16.68;100.00;99118.84;6216049;28;96695;-71
2023/10/11 00:19:15;;;;;;;;;18.40;17.00;;;;;16.48;100.00;99111.22;6249206;27;97136;-69
2023/10/11 00:22:19;;;;;;;;;19.60;17.60;;;;;16.36;100.00;99105.09;6232367;28;96940;-68
2023/10/11 00:25:24;;;;;;;;;16.80;15.60;;;;;16.19;100.00;99094.28;6233818;28;97458;-70
2023/10/11 00:28:31;;;;;;;;;18.25;17.00;;;;;16.11;100.00;99099.34;6216735;27;96684;-70
2023/10/11 00:31:35;;;;;;;;;17.25;16.25;;;;;15.99;100.00;99107.59;6235674;28;96663;-69
2023/10/11 00:34:39;;;;;;;;;18.80;18.00;;;;;15.90;100.00;99101.78;6234176;28;96494;-70
2023/10/11 00:37:44;;;;;;;;;18.40;16.00;;;;;15.82;100.00;99095.97;6237046;28;96588;-71
2023/10/11 00:41:06;;;;;;;;;15.00;15.00;;;;;15.73;100.00;99092.03;6243298;27;97669;-70
2023/10/11 00:44:10;;;;;;;;;19.00;16.60;;;;;15.60;100.00;99094.00;6225758;28;96853;-70
2023/10/11 00:47:16;;;;;;;;;13.20;13.00;;;;;15.52;100.00;99097.16;6235576;28;97032;-71
2023/10/11 00:50:21;;;;;;;;;17.00;16.00;;;;;15.50;100.00;99084.84;6217458;28;96548;-70
2023/10/11 00:53:26;;;;;;;;;16.60;15.60;;;;;15.52;100.00;99082.75;6236255;27;96860;-71
2023/10/11 00:56:32;;;;;;;;;16.60;16.00;;;;;15.45;100.00;99068.47;6200233;28;98975;-69
2023/10/11 00:59:38;;;;;;;;;19.20;17.00;;;;;15.48;100.00;99068.81;6252432;27;96499;-71
2023/10/11 01:02:41;;;;;;;;;19.50;17.50;;;;;15.42;100.00;99056.22;6218153;28;97065;-70
2023/10/11 01:05:48;;;;;;;;;20.20;18.60;;;;;15.41;100.00;99060.00;6217845;28;99485;-71
2023/10/11 01:08:54;;;;;;;;;18.20;16.60;;;;;15.37;100.00;99058.84;6218044;28;97413;-70
2023/10/11 01:12:01;;;;;;;;;18.40;16.00;;;;;15.36;100.00;99049.06;6215880;28;96824;-71
2023/10/11 01:15:11;;;;;;;;;14.80;14.80;;;;;15.36;100.00;99051.78;6249379;27;96477;-71
2023/10/11 01:18:15;;;;;;;;;18.40;17.40;;;;;15.39;100.00;99048.56;6201093;28;98321;-71
2023/10/11 01:21:20;;;;;;;;;16.50;16.00;;;;;15.41;100.00;99051.84;6216724;28;97315;-71
2023/10/11 01:24:23;;;;;;;;;17.60;16.00;;;;;15.42;100.00;99055.38;6215826;28;97786;-71
2023/10/11 01:27:30;;;;;;;;;20.00;18.00;;;;;15.44;100.00;99053.25;6216068;28;97947;-71
2023/10/11 01:30:33;;;;;;;;;17.80;16.00;;;;;15.48;100.00;99059.84;6235481;28;97111;-71
2023/10/11 01:33:37;;;;;;;;;14.20;13.40;;;;;15.51;100.00;99053.91;6200884;28;96858;-70
2023/10/11 01:36:43;;;;;;;;;18.00;15.40;;;;;15.72;100.00;99053.16;6233641;28;97090;-70
2023/10/11 01:39:46;;;;;;;;;13.00;12.00;;;;;15.92;100.00;99052.59;6248345;27;97218;-71
2023/10/11 01:42:50;;;;;;;;;13.00;13.00;;;;;16.08;100.00;99056.34;6240560;28;96331;-71
2023/10/11 01:45:53;;;;;;;;;14.00;13.00;;;;;16.23;100.00;99051.06;6255242;27;96445;-71
2023/10/11 01:48:58;;;;;;;;;13.00;13.00;;;;;16.37;100.00;99050.41;6221883;28;97523;-71
2023/10/11 01:52:06;;;;;;;;;13.60;13.00;;;;;16.55;100.00;99048.44;6221356;28;96772;-71
2023/10/11 01:55:11;;;;;;;;;15.00;14.00;;;;;16.69;100.00;99061.41;6222315;28;96403;-71
2023/10/11 01:58:15;;;;;;;;;14.20;13.00;;;;;16.80;100.00;99062.34;6246617;27;96646;-71
2023/10/11 02:01:22;;;;;;;;;13.00;12.00;;;;;16.93;100.00;99058.38;6254717;27;96406;-71
2023/10/11 02:04:28;;;;;;;;;12.00;11.00;;;;;17.04;100.00;99058.22;6219294;28;96965;-71
2023/10/11 02:07:33;;;;;;;;;12.50;12.50;;;;;17.18;100.00;99064.84;6219869;28;96556;-68
2023/10/11 02:10:37;;;;;;;;;15.00;13.00;;;;;17.25;100.00;99051.03;6237752;28;98366;-71
2023/10/11 02:13:40;;;;;;;;;12.40;11.60;;;;;17.33;100.00;99048.63;6237092;28;96462;-71
2023/10/11 02:16:43;;;;;;;;;15.40;13.40;;;;;17.37;100.00;99048.09;6219981;28;97132;-70
2023/10/11 02:19:47;;;;;;;;;14.20;12.00;;;;;17.46;100.00;99046.53;6237302;28;97645;-71
2023/10/11 02:22:53;;;;;;;;;13.00;12.00;;;;;17.51;100.00;99046.56;6237052;28;97218;-70
2023/10/11 02:25:56;;;;;;;;;12.50;12.50;;;;;17.55;100.00;99040.31;6238153;28;96568;-70
2023/10/11 02:29:00;;;;;;;;;13.00;11.00;;;;;17.61;100.00;99049.38;6237401;28;97091;-71
2023/10/11 02:32:08;;;;;;;;;12.60;12.60;;;;;17.65;100.00;99048.59;6217045;28;96671;-69
2023/10/11 02:35:13;;;;;;;;;16.40;15.40;;;;;17.72;100.00;99049.19;6255612;27;97015;-71
2023/10/11 02:38:22;;;;;;;;;17.50;17.25;;;;;17.81;100.00;99048.69;6240178;28;96519;-71
2023/10/11 02:41:25;;;;;;;;;17.00;16.40;;;;;17.76;100.00;99046.75;6255149;27;97611;-71
2023/10/11 02:44:29;;;;;;;;;14.00;13.00;;;;;17.85;100.00;99038.88;6221537;28;96459;-71
2023/10/11 02:47:35;;;;;;;;;13.60;13.00;;;;;17.86;100.00;99038.63;6239197;28;96547;-71
2023/10/11 02:50:38;;;;;;;;;15.25;14.00;;;;;17.94;100.00;99034.56;6221915;28;96313;-71
2023/10/11 02:53:46;;;;;;;;;13.00;12.00;;;;;17.96;100.00;99032.38;6219026;28;96750;-71
2023/10/11 02:56:51;;;;;;;;;14.00;12.00;;;;;17.94;100.00;99024.47;6220705;28;96624;-71
2023/10/11 02:59:56;;;;;;;;;12.60;11.20;;;;;17.97;100.00;99026.69;6239591;28;96609;-71
2023/10/11 03:03:01;;;;;;;;;12.40;11.00;;;;;18.02;100.00;99023.97;6220611;28;96708;-71
2023/10/11 03:06:07;;;;;;;;;14.00;12.00;;;;;18.08;100.00;99025.63;6220938;28;96408;-71
2023/10/11 03:09:12;;;;;;;;;10.20;9.80;;;;;18.09;100.00;99021.81;6220127;28;96429;-71
2023/10/11 03:12:19;;;;;;;;;12.40;11.40;;;;;18.15;100.00;99025.38;6219021;28;96842;-71
2023/10/11 03:15:23;;;;;;;;;10.50;10.00;;;;;18.21;100.00;99015.31;6238472;28;97610;-71
2023/10/11 03:18:32;;;;;;;;;12.40;12.00;;;;;18.32;100.00;99019.72;6237777;28;96955;-70
2023/10/11 03:21:36;;;;;;;;;16.00;13.40;;;;;18.36;100.00;99018.09;6237607;28;96869;-71
2023/10/11 03:24:41;;;;;;;;;13.00;12.40;;;;;18.42;100.00;99014.28;6237793;27;96545;-71
2023/10/11 03:27:49;;;;;;;;;10.00;9.00;;;;;18.44;100.00;99014.81;6233826;27;96815;-71
2023/10/11 03:30:53;;;;;;;;;11.00;10.60;;;;;18.42;100.00;99011.56;6222642;28;96800;-71
2023/10/11 03:33:57;;;;;;;;;10.00;9.80;;;;;18.49;100.00;99012.91;6219727;28;96724;-71
2023/10/11 03:37:00;;;;;;;;;10.00;10.00;;;;;18.51;100.00;98997.09;6237244;28;96651;-70
2023/10/11 03:40:27;;;;;;;;;8.60;7.60;;;;;18.54;100.00;98991.13;6236645;28;97062;-70
2023/10/11 03:43:32;;;;;;;;;9.60;8.20;;;;;18.55;100.00;98998.22;6231289;28;96914;-70
2023/10/11 03:46:36;;;;;;;;;10.00;10.00;;;;;18.54;100.00;99004.78;6219896;28;96387;-71
2023/10/11 03:49:51;;;;;;;;;9.00;9.00;;;;;18.60;100.00;99011.88;6248176;27;96335;-70
2023/10/11 03:53:06;;;;;;;;;10.00;10.00;;;;;18.64;100.00;99003.16;6236757;28;96670;-71
2023/10/11 03:56:11;;;;;;;;;9.00;8.00;;;;;18.69;100.00;98994.97;6228500;27;96556;-71
2023/10/11 03:59:14;;;;;;;;;10.00;10.00;;;;;18.74;100.00;98997.69;6235769;28;97189;-69
2023/10/11 04:02:19;;;;;;;;;10.00;9.00;;;;;18.78;100.00;98990.59;6187758;28;96770;-69
2023/10/11 04:05:23;;;;;;;;;7.80;7.40;;;;;18.85;100.00;98983.78;6217227;27;96721;-68
2023/10/11 04:08:27;;;;;;;;;8.00;7.00;;;;;18.76;100.00;98968.22;6225501;27;96852;-71
2023/10/11 04:11:50;;;;;;;;;9.00;8.00;;;;;18.85;100.00;98983.78;6239655;27;96634;-71
2023/10/11 04:14:57;;;;;;;;;6.00;5.80;;;;;18.87;100.00;98981.56;6227894;27;97341;-71
2023/10/11 04:18:10;;;;;;;;;10.00;9.40;;;;;18.83;100.00;98974.19;6235513;27;97383;-69
2023/10/11 04:21:26;;;;;;;;;7.00;7.00;;;;;18.94;100.00;98975.84;6230118;28;98571;-68
2023/10/11 04:24:34;;;;;;;;;7.60;7.00;;;;;18.97;100.00;98973.38;6233589;28;96817;-67
2023/10/11 04:27:54;;;;;;;;;7.00;7.00;;;;;19.01;100.00;98965.44;6212091;27;97558;-68
2023/10/11 04:31:28;;;;;;;;;9.00;8.00;;;;;19.06;100.00;98975.59;6231010;27;97708;-68
2023/10/11 04:34:23;;;;;;;;;10.00;9.00;;;;;19.08;100.00;98974.19;6237957;27;96911;-67
2023/10/11 04:37:30;;;;;;;;;9.80;9.00;;;;;19.10;100.00;98980.22;6215494;28;96504;-69
2023/10/11 04:40:41;;;;;;;;;8.00;7.00;;;;;19.13;100.00;98979.66;6225411;27;96748;-69
2023/10/11 04:43:50;;;;;;;;;12.00;10.00;;;;;19.15;100.00;98977.47;6226806;27;96850;-67
2023/10/11 04:46:57;;;;;;;;;20.00;19.00;;;;;19.02;100.00;98983.50;6237928;27;97548;-69
2023/10/11 04:50:11;;;;;;;;;14.50;12.25;;;;;18.85;100.00;98988.41;6232834;27;96270;-69
2023/10/11 04:53:18;;;;;;;;;15.00;14.00;;;;;18.73;100.00;98983.22;6235744;27;96747;-69
2023/10/11 04:59:59;;;;;;;;;11.00;10.00;;;;;18.63;100.00;98975.00;6223548;28;97188;-68
2023/10/11 05:03:02;;;;;;;;;10.00;9.40;;;;;18.71;100.00;98984.59;6225813;27;97193;-69
2023/10/11 05:06:15;;;;;;;;;10.00;9.00;;;;;18.80;100.00;98974.75;6234420;28;96544;-68
2023/10/11 05:09:29;;;;;;;;;7.20;7.20;;;;;18.88;100.00;98975.03;6227395;28;96704;-69
2023/10/11 05:12:41;;;;;;;;;9.00;8.00;;;;;18.97;100.00;98969.81;6212048;28;97007;-69
2023/10/11 05:15:47;;;;;;;;;8.40;8.00;;;;;19.07;100.00;98977.19;6235908;27;97063;-67
2023/10/11 05:18:51;;;;;;;;;9.00;8.00;;;;;19.14;100.00;98973.09;6220627;28;96670;-68
2023/10/11 05:21:55;;;;;;;;;5.20;5.20;;;;;19.21;100.00;98976.34;6231403;27;97550;-68
2023/10/11 05:25:39;;;;;;;;;5.00;4.60;;;;;19.27;100.00;98971.72;6238024;27;96579;-68
2023/10/11 05:28:51;;;;;;;;;6.00;6.00;;;;;19.35;100.00;98965.69;6209499;28;97700;-69
2023/10/11 05:32:20;;;;;;;;;7.00;6.60;;;;;19.39;100.00;98969.50;6246087;27;96840;-69
2023/10/11 05:35:43;;;;;;;;;7.80;6.40;;;;;19.40;100.00;98963.75;6251948;27;96808;-69
2023/10/11 05:52:13;;;;;;;;;8.00;7.00;;;;;19.69;100.00;98968.63;6266569;27;96353;-69
2023/10/11 05:55:17;;;;;;;;;8.00;6.00;;;;;19.76;100.00;98969.97;6263183;27;98114;-69
2023/10/11 05:58:20;;;;;;;;;7.00;6.00;;;;;19.83;100.00;98973.25;6265978;27;96353;-69
2023/10/11 06:01:24;;;;;;;;;7.00;6.00;;;;;19.89;100.00;98966.63;6265853;27;97568;-69
2023/10/11 06:04:30;;;;;;;;;8.80;8.00;;;;;19.98;100.00;98966.88;6255264;27;97076;-69
2023/10/11 06:07:37;;;;;;;;;8.00;7.00;;;;;20.03;100.00;98966.03;6222795;28;96745;-70
2023/10/11 06:10:42;;;;;;;;;9.50;8.75;;;;;20.14;100.00;98962.13;6239990;28;96518;-69
2023/10/11 06:13:45;;;;;;;;;5.75;5.25;;;;;20.22;100.00;98967.03;6221572;28;97123;-68
2023/10/11 06:16:57;;;;;;;;;6.60;5.60;;;;;20.24;100.00;98957.41;6237302;28;96839;-69
2023/10/11 06:20:23;;;;;;;;;8.60;8.60;;;;;20.32;100.00;98964.25;6220524;28;97875;-69
2023/10/11 06:23:26;;;;;;;;;7.00;7.00;;;;;20.41;100.00;98968.03;6237596;28;96644;-69
2023/10/11 06:26:52;;;;;;;;;11.00;10.80;;;;;20.48;100.00;98971.25;6238478;27;96614;-68
2023/10/11 06:29:53;;;;;;;;;14.40;13.40;;;;;20.48;100.00;98974.00;6238513;28;96392;-68
2023/10/11 06:32:57;;;;;;;;;20.00;19.40;;;;;20.46;100.00;98970.75;6237478;28;96614;-69
2023/10/11 06:36:06;;;;;;;;;19.80;17.40;;;;;20.41;100.00;98972.69;6219752;28;98488;-69
2023/10/11 06:39:33;;;;;;;;;21.60;20.40;;;;;20.33;100.00;98966.69;6238762;28;96473;-69
2023/10/11 06:42:34;;;;;;;;;19.20;18.00;;;;;20.33;100.00;98979.56;6214937;28;96393;-69
2023/10/11 06:45:36;;;;;;;;;18.80;18.00;;;;;20.33;100.00;98990.50;6201907;28;96740;-69
2023/10/11 06:48:43;;;;;;;;;21.00;20.40;;;;;20.33;100.00;98987.00;6240110;28;96397;-69
2023/10/11 06:51:50;;;;;;;;;20.40;19.40;;;;;20.32;100.00;98980.69;6238349;28;96556;-70
2023/10/11 06:58:15;;;;;;;;;20.00;18.20;;;;;20.39;100.00;98985.84;6238492;28;97381;-69
2023/10/11 07:01:19;;;;;;;;;20.20;19.80;;;;;20.43;100.00;98979.50;6239710;28;96384;-69
2023/10/11 07:04:24;;;;;;;;;21.60;19.60;;;;;20.52;100.00;98975.09;6239118;28;96278;-69
2023/10/11 07:07:32;;;;;;;;;21.80;20.80;;;;;20.64;100.00;98985.66;6238827;28;96687;-69
2023/10/11 07:10:36;;;;;;;;;24.20;22.60;;;;;20.78;100.00;98983.91;6238480;28;96986;-70
2023/10/11 07:13:54;;;;;;;;;21.40;20.40;;;;;20.90;100.00;98980.81;6219505;28;96807;-70
2023/10/11 07:17:00;;;;;;;;;22.60;21.00;;;;;21.07;100.00;98968.31;6238653;27;96741;-69
2023/10/11 07:20:47;;;;;;;;;20.50;19.00;;;;;21.34;100.00;98964.28;6242592;27;96589;-68
2023/10/11 07:23:55;;;;;;;;;19.20;18.00;;;;;21.80;100.00;98978.28;6218147;28;96523;-69
2023/10/11 07:27:08;;;;;;;;;23.40;20.00;;;;;24.37;100.00;98962.16;6238263;28;96556;-70
2023/10/11 07:30:16;;;;;;;;;19.00;17.00;;;;;27.56;100.00;98973.13;6239044;28;96343;-70
2023/10/11 07:33:20;;;;;;;;;14.00;14.00;;;;;30.01;100.00;98971.28;6238985;28;96333;-70
2023/10/11 07:36:23;;;;;;;;;11.00;10.00;;;;;31.97;100.00;98965.44;6238152;28;96525;-69
2023/10/11 07:39:34;;;;;;;;;13.00;12.00;;;;;33.74;93.32;98969.25;6219691;28;96460;-70
2023/10/11 07:42:38;;;;;;;;;12.00;11.00;;;;;35.06;87.96;98961.59;6237582;28;96339;-70
2023/10/11 07:45:47;;;;;;;;;11.00;10.00;;;;;35.83;82.65;98951.59;6238305;28;98135;-70
2023/10/11 07:48:56;;;;;;;;;15.80;10.80;;;;;36.56;76.77;98949.72;6248059;27;97108;-70
2023/10/11 07:52:00;;;;;;;;;12.33;10.00;;;;;37.37;73.25;98949.28;6264302;27;96893;-70
2023/10/11 07:55:08;;;;;;;;;11.40;11.00;;;;;38.38;70.25;98946.88;6243457;27;96402;-70
2023/10/11 07:58:11;;;;;;;;;11.00;11.00;;;;;39.52;65.34;98942.41;6238706;28;96326;-70
2023/10/11 08:01:24;;;;;;;;;13.00;11.00;;;;;40.55;59.73;98942.31;6203521;28;97256;-70
2023/10/11 08:04:29;;;;;;;;;11.00;10.00;;;;;41.46;54.94;98944.41;6219607;28;96701;-70
2023/10/11 08:07:32;;;;;;;;;10.00;10.00;;;;;42.29;50.21;98931.28;6238403;28;96322;-71
2023/10/11 08:10:44;;;;;;;;;11.00;9.00;;;;;42.84;47.34;98935.50;6237752;28;96332;-70
2023/10/11 08:13:49;;;;;;;;;9.25;9.00;;;;;43.50;50.46;98930.38;6233907;28;96642;-69
2023/10/11 08:16:53;;;;;;;;;11.80;9.80;;;;;44.20;42.55;98923.34;6236384;28;97055;-70
2023/10/11 08:19:56;;;;;;;;;10.00;9.00;;;;;44.92;41.30;98923.75;6217156;28;97232;-71
2023/10/11 08:23:01;;;;;;;;;10.60;9.60;;;;;45.52;40.08;98923.97;6235146;27;96870;-68
2023/10/11 08:26:07;;;;;;;;;10.00;8.00;;;;;46.02;37.57;98912.53;6235817;28;96305;-68
2023/10/11 08:29:17;;;;;;;;;8.40;8.00;;;;;46.44;34.84;98915.09;6218124;28;96287;-69
2023/10/11 08:32:25;;;;;;;;;10.00;8.00;;;;;46.77;33.84;98912.69;6217302;28;97882;-70
2023/10/11 08:35:31;;;;;;;;;12.00;11.00;;;;;47.00;34.36;98912.22;6235062;28;96750;-71
2023/10/11 08:38:35;;;;;;;;;9.00;9.00;;;;;47.43;31.97;98905.63;6235031;28;96519;-71
2023/10/11 08:41:43;;;;;;;;;8.00;7.00;;;;;47.45;32.43;98913.72;6237096;28;96854;-72
2023/10/11 08:44:49;;;;;;;;;7.60;7.00;;;;;47.33;30.33;98906.84;6236987;28;96569;-69
2023/10/11 08:47:54;;;;;;;;;6.00;6.00;;;;;47.34;31.46;98906.38;6219225;28;96829;-71
2023/10/11 08:50:57;;;;;;;;;6.25;6.25;;;;;47.07;31.86;98911.94;6237510;28;97995;-70
2023/10/11 08:54:01;;;;;;;;;6.75;6.00;;;;;46.97;30.57;98900.94;6237232;27;96399;-70
2023/10/11 08:57:07;;;;;;;;;7.00;5.00;;;;;46.73;31.43;98912.00;6237748;28;96280;-70
2023/10/11 09:00:28;;;;;;;;;6.00;5.00;;;;;46.77;32.88;98907.00;6237872;28;96334;-70
2023/10/11 09:03:31;;;;;;;;;6.00;5.50;;;;;46.74;31.32;98907.91;6237232;28;96395;-71
2023/10/11 09:06:36;;;;;;;;;5.00;5.00;;;;;46.58;29.70;98893.88;6219447;28;96418;-70
2023/10/11 09:09:40;;;;;;;;;6.80;6.00;;;;;46.16;31.44;98896.19;6218346;28;97009;-69
2023/10/11 09:12:46;;;;;;;;;8.00;7.00;;;;;46.25;31.02;98901.97;6237308;28;96879;-72
2023/10/11 09:15:53;;;;;;;;;4.67;4.67;;;;;46.49;31.26;98900.25;6237002;28;97006;-71
2023/10/11 09:19:05;;;;;;;;;7.50;7.00;;;;;46.56;32.19;98900.03;6237564;28;97661;-71
2023/10/11 09:22:18;;;;;;;;;5.20;5.00;;;;;46.85;30.95;98905.44;6237310;28;97027;-70
2023/10/11 09:25:33;;;;;;;;;6.20;5.20;;;;;46.78;29.53;98900.00;6246594;27;97699;-71
2023/10/11 09:28:41;;;;;;;;;6.00;5.00;;;;;46.37;28.98;98903.97;6235745;28;96462;-71
2023/10/11 09:31:57;;;;;;;;;5.50;5.25;;;;;46.26;28.48;98895.81;6237081;28;96421;-71
2023/10/11 09:35:01;;;;;;;;;6.00;5.00;;;;;45.78;28.37;98896.25;6236550;28;96638;-71
2023/10/11 09:38:06;;;;;;;;;5.00;5.00;;;;;44.72;30.30;98895.50;6218940;28;96712;-71
2023/10/11 09:41:10;;;;;;;;;5.00;4.60;;;;;43.80;31.54;98895.16;6236205;28;97246;-69
2023/10/11 09:44:16;;;;;;;;;6.00;5.00;;;;;42.88;33.91;98893.66;6236935;28;96339;-69
2023/10/11 09:47:20;;;;;;;;;5.60;5.40;;;;;42.19;35.85;98884.91;6237341;28;96568;-69
2023/10/11 09:50:24;;;;;;;;;6.00;4.80;;;;;41.76;36.79;98884.06;6218925;28;96621;-68
2023/10/11 09:53:30;;;;;;;;;5.00;5.00;;;;;41.32;34.84;98888.81;6217169;28;98453;-68
2023/10/11 09:56:45;;;;;;;;;4.60;4.00;;;;;41.36;35.50;98883.88;6236921;28;96862;-69
2023/10/11 10:00:01;;;;;;;;;5.00;5.00;;;;;41.38;33.80;98880.63;6236831;28;96534;-69
2023/10/11 10:03:12;;;;;;;;;6.00;5.60;;;;;41.69;36.89;98875.72;6239405;27;97382;-70
2023/10/11 10:06:21;;;;;;;;;5.00;4.00;;;;;41.33;35.82;98878.28;6239720;28;96774;-70
2023/10/11 10:09:26;;;;;;;;;5.20;5.20;;;;;40.95;34.40;98869.94;6239732;28;97471;-70
2023/10/11 10:12:34;;;;;;;;;7.00;6.00;;;;;39.97;34.25;98871.91;6240104;28;96344;-70
2023/10/11 10:15:49;;;;;;;;;5.40;5.00;;;;;38.95;38.36;98877.09;6239595;28;97149;-70
2023/10/11 10:19:23;;;;;;;;;7.00;5.20;;;;;38.92;40.81;98875.09;6238937;28;96725;-70
2023/10/11 10:22:31;;;;;;;;;5.60;5.00;;;;;38.40;41.12;98872.06;6238609;28;96817;-70
2023/10/11 10:25:34;;;;;;;;;9.00;6.60;;;;;38.15;43.06;98866.50;6238786;27;96588;-68
2023/10/11 10:28:54;;;;;;;;;5.40;5.00;;;;;37.95;39.32;98858.88;6220364;28;96987;-67
2023/10/11 10:32:08;;;;;;;;;6.00;5.40;;;;;37.67;42.05;98866.16;6219818;28;96698;-70
2023/10/11 10:35:36;;;;;;;;;5.00;4.00;;;;;37.27;43.05;98860.91;6220117;28;96742;-70
2023/10/11 10:42:26;;;;;;;;;6.50;5.00;;;;;36.39;49.04;98844.56;6213804;28;96364;-69
2023/10/11 10:45:30;;;;;;;;;7.00;5.00;;;;;36.23;49.98;98844.88;6214688;28;96429;-70
2023/10/11 10:48:40;;;;;;;;;7.00;6.00;;;;;36.08;51.51;98848.75;6218936;28;96351;-70
2023/10/11 10:51:47;;;;;;;;;6.20;4.00;;;;;36.19;51.27;98829.22;6222076;28;96402;-70
2023/10/11 10:55:01;;;;;;;;;6.00;5.00;;;;;36.05;52.40;98827.91;6239007;28;96484;-70
2023/10/11 10:58:06;;;;;;;;;6.00;6.00;;;;;36.55;51.10;98832.97;6239069;28;96468;-70
2023/10/11 11:01:09;;;;;;;;;7.00;6.00;;;;;36.94;53.13;98827.50;6237749;28;96479;-70
2023/10/11 11:04:20;;;;;;;;;6.00;5.20;;;;;36.87;51.85;98828.28;6203750;28;98357;-70
2023/10/11 11:07:26;;;;;;;;;6.60;5.60;;;;;37.07;52.28;98826.75;6238333;28;97562;-70
2023/10/11 11:10:30;;;;;;;;;6.50;5.50;;;;;37.24;49.87;98825.94;6221926;28;96378;-70
2023/10/11 11:13:34;;;;;;;;;6.40;6.40;;;;;37.42;50.53;98822.34;6238748;27;96365;-70
2023/10/11 11:16:39;;;;;;;;;5.00;5.00;;;;;37.49;50.16;98823.13;6237716;27;96513;-70
2023/10/11 11:19:43;;;;;;;;;7.00;6.00;;;;;37.89;50.23;98815.47;6238265;28;96296;-71
2023/10/11 11:22:46;;;;;;;;;5.75;4.75;;;;;38.49;47.80;98826.56;6237313;28;96365;-70
2023/10/11 11:25:53;;;;;;;;;5.00;4.25;;;;;38.65;42.32;98818.44;6237285;28;96319;-71
2023/10/11 11:29:10;;;;;;;;;7.00;6.00;;;;;39.06;41.99;98818.59;6237977;28;97310;-71
2023/10/11 11:32:14;;;;;;;;;6.00;5.00;;;;;39.21;39.87;98819.31;6245947;27;96425;-70
2023/10/11 11:35:29;;;;;;;;;4.20;3.80;;;;;39.21;40.26;98820.09;6230006;27;96706;-71
2023/10/11 11:38:36;;;;;;;;;5.00;5.00;;;;;39.39;42.17;98820.78;6249821;27;96244;-70
2023/10/11 11:41:39;;;;;;;;;5.00;4.00;;;;;39.41;43.00;98811.91;6252998;27;96354;-71
2023/10/11 11:44:43;;;;;;;;;4.00;4.00;;;;;39.44;41.64;98807.47;6223362;28;96330;-71
2023/10/11 11:47:55;;;;;;;;;5.00;5.00;;;;;39.65;40.83;98804.44;6219638;28;96688;-71
2023/10/11 11:51:01;;;;;;;;;5.00;4.00;;;;;39.97;39.37;98807.75;6220589;28;96732;-71
2023/10/11 11:54:16;;;;;;;;;5.20;4.00;;;;;40.18;41.06;98807.53;6238177;28;96711;-71
2023/10/11 11:57:29;;;;;;;;;5.00;4.00;;;;;40.37;41.15;98808.13;6243148;27;96468;-71
2023/10/11 12:00:39;;;;;;;;;6.00;6.00;;;;;40.25;39.18;98796.16;6253379;27;96577;-71
2023/10/11 12:03:52;;;;;;;;;8.00;7.00;;;;;39.78;40.25;98808.38;6237781;28;96450;-70
2023/10/11 12:06:58;;;;;;;;;5.25;5.00;;;;;39.48;42.79;98800.56;6237777;28;96779;-70
2023/10/11 12:10:01;;;;;;;;;7.00;6.00;;;;;39.09;43.86;98812.16;6236719;28;96640;-71
2023/10/11 12:13:06;;;;;;;;;8.00;6.20;;;;;37.65;48.23;98798.22;6219895;28;96464;-71
2023/10/11 12:16:10;;;;;;;;;6.00;5.00;;;;;36.21;52.80;98787.53;6235302;28;96434;-69
2023/10/11 12:19:14;;;;;;;;;7.40;5.00;;;;;35.48;57.47;98795.84;6235642;28;97277;-69
2023/10/11 12:22:22;;;;;;;;;5.00;4.00;;;;;34.53;63.55;98804.13;6242222;27;96992;-68
2023/10/11 12:25:26;;;;;;;;;7.60;7.60;;;;;33.76;68.33;98792.72;6233548;27;97021;-69
2023/10/11 12:28:29;;;;;;;;;5.00;3.00;;;;;33.40;71.16;98800.53;6233875;28;97181;-69
2023/10/11 12:31:32;;;;;;;;;7.00;5.00;;;;;33.11;73.01;98801.19;6215804;28;96781;-69
2023/10/11 12:34:37;;;;;;;;;4.00;3.00;;;;;33.07;73.48;98809.53;6198874;28;96619;-68
2023/10/11 12:37:41;;;;;;;;;6.00;6.00;;;;;33.03;73.97;98793.91;6217358;28;96697;-70
2023/10/11 12:40:45;;;;;;;;;5.00;4.50;;;;;33.03;73.66;98789.13;6235714;28;96540;-70
2023/10/11 12:43:49;;;;;;;;;5.00;4.00;;;;;32.86;73.45;98789.59;6218446;28;97452;-70
2023/10/11 12:46:52;;;;;;;;;7.00;6.00;;;;;32.37;74.93;98802.56;6217913;28;97073;-70
2023/10/11 12:49:56;;;;;;;;;8.00;7.00;;;;;31.95;74.12;98777.38;6200690;27;99503;-69
2023/10/11 12:53:02;;;;;;;;;5.50;5.00;;;;;31.73;73.90;98778.88;6244048;27;97447;-69
2023/10/11 12:56:09;;;;;;;;;6.80;4.00;;;;;31.58;74.34;98776.94;6200993;28;98480;-70
2023/10/11 12:59:14;;;;;;;;;3.80;3.00;;;;;31.30;75.72;98768.69;6234167;28;96779;-69
2023/10/11 13:02:21;;;;;;;;;6.50;5.00;;;;;31.13;77.27;98771.84;6212953;27;96524;-70
2023/10/11 13:05:26;;;;;;;;;4.00;4.00;;;;;31.08;79.69;98769.34;6227899;28;96618;-68
2023/10/11 13:08:33;;;;;;;;;4.00;4.00;;;;;31.04;81.85;98762.84;6233412;27;97085;-70
2023/10/11 13:11:36;;;;;;;;;4.40;4.00;;;;;30.88;85.54;98760.88;6217584;28;97816;-70
2023/10/11 13:14:41;;;;;;;;;4.00;3.80;;;;;30.66;89.57;98769.00;6235216;28;96654;-70
2023/10/11 13:17:44;;;;;;;;;4.75;4.75;;;;;30.65;91.01;98764.59;6236644;28;96856;-71
2023/10/11 13:20:47;;;;;;;;;7.00;5.00;;;;;30.50;92.67;98757.84;6237150;28;96406;-70
2023/10/11 13:23:52;;;;;;;;;5.00;4.00;;;;;30.26;94.85;98761.53;6237120;28;96343;-70
2023/10/11 13:26:57;;;;;;;;;5.00;4.00;;;;;30.18;95.32;98762.50;6234371;28;96775;-70
2023/10/11 13:30:02;;;;;;;;;6.00;5.00;;;;;29.91;97.01;98766.88;6236458;27;96641;-70
2023/10/11 13:33:09;;;;;;;;;6.40;6.00;;;;;29.74;98.13;98761.59;6234214;28;96405;-70
2023/10/11 13:36:14;;;;;;;;;5.00;4.00;;;;;29.62;97.22;98756.03;6250557;27;99020;-70
2023/10/11 13:42:42;;;;;;;;;6.00;5.00;;;;;29.32;100.00;98746.38;6228190;28;96511;-70
2023/10/11 13:45:56;;;;;;;;;8.00;8.00;;;;;29.13;100.00;98758.00;6239293;28;97688;-70
2023/10/11 13:49:09;;;;;;;;;5.00;4.00;;;;;28.96;99.53;98744.38;6239847;28;96568;-69
2023/10/11 13:52:14;;;;;;;;;5.00;4.00;;;;;28.78;99.74;98744.56;6249987;27;96799;-70
2023/10/11 13:55:24;;;;;;;;;5.40;5.00;;;;;28.54;100.00;98746.50;6222344;28;96455;-70
2023/10/11 13:58:30;;;;;;;;;4.67;4.67;;;;;28.30;100.00;98761.88;6239183;27;96454;-70
2023/10/11 14:01:58;;;;;;;;;6.40;6.00;;;;;28.13;100.00;98752.94;6240184;27;96288;-70
2023/10/11 14:05:14;;;;;;;;;8.00;7.00;;;;;27.73;100.00;98756.19;6239715;28;97237;-70
2023/10/11 14:08:24;;;;;;;;;6.00;5.25;;;;;27.56;100.00;98754.34;6223115;28;96378;-70
2023/10/11 14:11:30;;;;;;;;;7.25;7.00;;;;;27.33;100.00;98741.91;6241009;28;96299;-69
2023/10/11 14:14:39;;;;;;;;;5.80;5.00;;;;;27.15;100.00;98746.75;6239751;28;96785;-69
2023/10/11 14:17:44;;;;;;;;;9.00;8.00;;;;;26.97;100.00;98747.19;6239149;28;96803;-70
2023/10/11 14:20:49;;;;;;;;;4.80;3.00;;;;;26.86;100.00;98743.13;6238019;28;96608;-70
2023/10/11 14:23:52;;;;;;;;;6.00;5.00;;;;;26.91;100.00;98749.31;6236341;28;97231;-69
2023/10/11 14:26:57;;;;;;;;;9.00;8.00;;;;;26.85;100.00;98744.25;6236393;28;97071;-69
2023/10/11 14:30:00;;;;;;;;;7.80;7.40;;;;;26.76;100.00;98737.97;6238011;28;96616;-69
2023/10/11 14:33:08;;;;;;;;;5.60;5.00;;;;;26.73;100.00;98745.75;6219142;28;96677;-69
2023/10/11 14:36:12;;;;;;;;;5.00;4.00;;;;;26.66;100.00;98744.66;6219596;28;96397;-69
2023/10/11 14:39:18;;;;;;;;;7.00;6.00;;;;;26.58;100.00;98751.03;6220285;28;97094;-69
2023/10/11 14:42:24;;;;;;;;;8.00;7.00;;;;;26.54;100.00;98739.00;6239890;28;97475;-70
2023/10/11 14:45:27;;;;;;;;;6.20;6.20;;;;;26.53;100.00;98745.69;6238543;28;96953;-70
2023/10/11 14:48:30;;;;;;;;;5.00;5.00;;;;;26.43;100.00;98743.28;6238454;27;96296;-70
2023/10/11 14:51:37;;;;;;;;;7.00;7.00;;;;;26.50;100.00;98749.91;6219814;28;96740;-69
2023/10/11 14:54:42;;;;;;;;;5.80;5.80;;;;;26.45;100.00;98749.28;6238589;28;96458;-70